首页
METAR-TAF:

METAR-TAF

机场 :

昆明, 中华人民共和国

昆明长水国际机场

纬度: 25-01N, 经度: 102-41E, 海拔: 1892米

当前天气观测

该预报发布于44分钟前的05:00 UTC
风速12节,风向西南,在南转西南西之间变化
温度 17°C
湿度 29%
气压 1024 hPa
能见度10公里或以上
1500米以下无云,无积雨云

METAR: ZPPP 250500Z 22006MPS 200V260 CAVOK 17/M01 Q1024 NOSIG

时间: 13:44 (05:44 UTC)

预报

该预报发布于4小时和34分钟前的01:10 UTC
预报有效从25日的 06点(UTC)到 26日的 06点(UTC)
风速14节,风向西南
能见度10公里或以上
散云层高于3000英尺
成为
从 25日的 12点(UTC)到 25日的 13点(UTC)
风速8节,风向东北

TAF: ZPPP 250110Z 2506/2606 22007MPS 9999 SCT030 TX20/2508Z TN05/2523Z BECMG 2512/2513 04004MPS

超过4000个机场的气象观测和天气预报(METAR&TAF报告)。

可查询的气象台以黄色和红色小点在地图上表示。

将鼠标移到小点上方,可查看气象台名称。

然后点击查看天气观测和预报。

如需切换地图:点击带黑十字的绿色按钮放大地图;点击带横线的绿色按钮缩小地图;或者点击绿色箭头查看邻近地区的地图。


METAR-TAF: